TOM818P EIKN-EGAA
Flight info
| Callsign | TOM818P |
|---|---|
| Flight time | N/A |
| Altitude | 19000 |
| Route | ELGUX1B ELGUX DCT TUVPU DCT BELZU |
| Aircraft | B738/M-SDE2E3FGHIRWXY/LB1 |
Departure
| Time | 2026-05-07 15:07 |
|---|---|
| Airport | Ireland West Airport Knock (EIKN) |
Arrival
| Time | N/A |
|---|---|
| Airport | Belfast International Airport (EGAA) |
| Time | Latitude | Longitude | Altitude | Speed | Heading |
|---|---|---|---|---|---|
| 2026-05-07 14:48 | 53.91344 | -8.81006 | 628 ft | 0 kts | 259° |
| 2026-05-07 15:00 | 53.91347 | -8.80982 | 642 ft | 2 kts | 259° |
| 2026-05-07 15:01 | 53.91350 | -8.80955 | 642 ft | 2 kts | 262° |
| 2026-05-07 15:01 | 53.91350 | -8.80927 | 642 ft | 2 kts | 304° |
| 2026-05-07 15:01 | 53.91342 | -8.80914 | 644 ft | 1 kts | 349° |
| 2026-05-07 15:01 | 53.91338 | -8.80913 | 644 ft | 0 kts | 352° |
| 2026-05-07 15:03 | 53.91341 | -8.80913 | 644 ft | 1 kts | 0° |
| 2026-05-07 15:03 | 53.91357 | -8.80900 | 641 ft | 5 kts | 19° |
| 2026-05-07 15:03 | 53.91389 | -8.80907 | 641 ft | 2 kts | 317° |
| 2026-05-07 15:04 | 53.91390 | -8.80921 | 644 ft | 1 kts | 267° |
| 2026-05-07 15:04 | 53.91385 | -8.80929 | 643 ft | 1 kts | 220° |
| 2026-05-07 15:04 | 53.91363 | -8.80931 | 644 ft | 5 kts | 169° |
| 2026-05-07 15:04 | 53.91310 | -8.80909 | 641 ft | 10 kts | 167° |
| 2026-05-07 15:05 | 53.91223 | -8.80877 | 642 ft | 15 kts | 168° |
| 2026-05-07 15:05 | 53.91149 | -8.80778 | 644 ft | 15 kts | 95° |
| 2026-05-07 15:05 | 53.91179 | -8.80581 | 644 ft | 21 kts | 74° |
| 2026-05-07 15:05 | 53.91215 | -8.80310 | 643 ft | 26 kts | 79° |
| 2026-05-07 15:06 | 53.91281 | -8.80051 | 641 ft | 18 kts | 82° |
| 2026-05-07 15:06 | 53.91265 | -8.80004 | 643 ft | 1 kts | 171° |
| 2026-05-07 15:06 | 53.91251 | -8.80019 | 641 ft | 4 kts | 226° |
| 2026-05-07 15:06 | 53.91237 | -8.80072 | 641 ft | 0 kts | 256° |
| 2026-05-07 15:07 | 53.91224 | -8.80171 | 641 ft | 36 kts | 257° |
| 2026-05-07 15:07 | 53.91119 | -8.81077 | 643 ft | 117 kts | 259° |
| 2026-05-07 15:07 | 53.90912 | -8.82738 | 884 ft | 159 kts | 256° |
| 2026-05-07 15:07 | 53.90696 | -8.84511 | 1985 ft | 153 kts | 255° |
| 2026-05-07 15:08 | 53.90444 | -8.86333 | 2781 ft | 165 kts | 256° |
| 2026-05-07 15:08 | 53.90227 | -8.88301 | 3544 ft | 174 kts | 257° |
| 2026-05-07 15:08 | 53.90008 | -8.90370 | 4402 ft | 181 kts | 257° |
| 2026-05-07 15:08 | 53.89780 | -8.92487 | 5249 ft | 185 kts | 257° |
| 2026-05-07 15:09 | 53.89548 | -8.94618 | 6071 ft | 187 kts | 257° |
| 2026-05-07 15:09 | 53.89265 | -8.96752 | 6892 ft | 185 kts | 246° |
| 2026-05-07 15:09 | 53.88487 | -8.98621 | 7256 ft | 209 kts | 224° |
| 2026-05-07 15:09 | 53.87217 | -9.00113 | 7565 ft | 236 kts | 206° |
| 2026-05-07 15:10 | 53.85556 | -9.00795 | 8222 ft | 255 kts | 183° |
| 2026-05-07 15:10 | 53.83779 | -9.00475 | 8730 ft | 257 kts | 173° |
| 2026-05-07 15:10 | 53.82010 | -8.99854 | 8904 ft | 261 kts | 171° |
| 2026-05-07 15:10 | 53.80226 | -8.99199 | 8907 ft | 263 kts | 170° |
| 2026-05-07 15:11 | 53.78535 | -8.97977 | 8904 ft | 270 kts | 146° |
| 2026-05-07 15:11 | 53.77322 | -8.95532 | 8922 ft | 278 kts | 120° |
| 2026-05-07 15:11 | 53.76766 | -8.92372 | 9378 ft | 289 kts | 103° |
| 2026-05-07 15:11 | 53.76413 | -8.89035 | 10463 ft | 288 kts | 103° |
| 2026-05-07 15:12 | 53.76066 | -8.85679 | 11505 ft | 291 kts | 103° |
| 2026-05-07 15:12 | 53.75709 | -8.82274 | 12567 ft | 297 kts | 103° |
| 2026-05-07 15:12 | 53.75341 | -8.78823 | 13607 ft | 302 kts | 103° |
| 2026-05-07 15:12 | 53.74960 | -8.75289 | 14596 ft | 307 kts | 104° |
| 2026-05-07 15:13 | 53.74572 | -8.71716 | 15580 ft | 311 kts | 104° |
| 2026-05-07 15:13 | 53.74175 | -8.68090 | 16589 ft | 316 kts | 104° |
| 2026-05-07 15:13 | 53.73770 | -8.64423 | 17597 ft | 320 kts | 104° |
| 2026-05-07 15:13 | 53.73357 | -8.60686 | 18473 ft | 327 kts | 104° |
| 2026-05-07 15:14 | 53.73031 | -8.57744 | 18753 ft | 328 kts | 104° |